Main page
METAR-TAF:

METAR-TAF

Airports :

Beja Airbase

Beja, Portugal

latitude: 38-04-40N, longitude: 007-55-57W, elevation: 193 m

Current weather observation

The report was made 24 minutes ago, at 02:00 UTC
Wind 7 kt from the West/Northwest
Temperature 18°C
Humidity 77%
Pressure 1020 hPa
Visibility 10 km or more
no clouds below 1500 m and no cumulonimbus

METAR: LPBJ 220200Z 30007KT CAVOK 18/14 Q1020

Time: 03:24 (02:24 UTC)

Forecast

The report was made 3 hours and 15 minutes ago, at 23:09 UTC
Forecast valid from 22 at 00 UTC to 22 at 24 UTC
Wind 5 kt from the North/Northwest
Visibility 10 km or more
no clouds below 1500 m and no cumulonimbus
Becoming
from 22 at 06 UTC to 22 at 09 UTC
Wind 5 kt from the East/Southeast

TAF: LPBJ 212309Z 2200/2224 33005KT CAVOK BECMG 2206/2209 11005KT

Weather observations and forecasts of more than 4000 airports (METAR and TAF reports).

The available stations are represented by yellow and red dots on the map.

Hover mouse over dot to see the name of the station.

Then click to see weather observations and forecasts.

To change the map : click on the green buttons with a black cross to zoom in, on the green button with a dash to zoom out, or on the green arrows for adjacent maps.


METAR-TAF: